createdAt,value
2022-08-30T00:00:58.844Z,21.00
2022-08-30T00:03:28.956Z,21.00
2022-08-30T00:05:57.649Z,20.90
2022-08-30T00:08:27.796Z,20.90
2022-08-30T00:10:56.403Z,20.90
2022-08-30T00:13:25.143Z,20.80
2022-08-30T00:15:53.876Z,20.80
2022-08-30T00:18:22.617Z,20.80
2022-08-30T00:20:56.015Z,20.80
2022-08-30T00:23:24.886Z,20.80
2022-08-30T00:25:52.972Z,20.80
2022-08-30T00:28:21.354Z,20.70
2022-08-30T00:30:50.697Z,20.60
2022-08-30T00:33:19.057Z,20.60
2022-08-30T00:38:18.497Z,20.60
2022-08-30T00:40:47.859Z,20.50
2022-08-30T00:43:23.219Z,20.50
2022-08-30T00:45:53.256Z,20.50
2022-08-30T00:48:23.027Z,20.50
2022-08-30T00:50:55.729Z,20.50
2022-08-30T00:53:28.664Z,20.40
2022-08-30T00:55:58.985Z,20.50
2022-08-30T00:58:32.497Z,20.50
2022-08-30T01:01:02.736Z,20.50
2022-08-30T01:03:33.720Z,20.40
2022-08-30T01:06:02.541Z,20.50
2022-08-30T01:08:32.632Z,20.30
2022-08-30T01:11:01.630Z,20.40
2022-08-30T01:13:30.258Z,20.30
2022-08-30T01:18:29.020Z,20.30
2022-08-30T01:21:04.021Z,20.30
2022-08-30T01:23:36.173Z,20.20
2022-08-30T01:26:07.296Z,20.10
2022-08-30T01:28:36.593Z,20.10
2022-08-30T01:31:05.189Z,20.10
2022-08-30T01:33:33.749Z,20.10
2022-08-30T01:36:04.976Z,20.10
2022-08-30T01:38:38.443Z,19.90
2022-08-30T01:41:11.801Z,20.00
2022-08-30T01:43:40.314Z,20.00
2022-08-30T01:46:11.126Z,20.00
2022-08-30T01:48:40.663Z,20.00
2022-08-30T01:51:11.609Z,20.00
2022-08-30T01:53:41.981Z,19.90
2022-08-30T01:56:11.256Z,19.80
2022-08-30T01:58:41.652Z,19.80
2022-08-30T02:01:14.012Z,19.90
2022-08-30T02:03:45.499Z,19.90
2022-08-30T02:06:15.815Z,19.90
2022-08-30T02:08:46.377Z,19.70
2022-08-30T02:11:15.336Z,19.70
2022-08-30T02:13:45.317Z,19.70
2022-08-30T02:16:17.381Z,19.70
2022-08-30T02:18:46.168Z,19.70
2022-08-30T02:21:14.671Z,19.70
2022-08-30T02:23:44.994Z,19.90
2022-08-30T02:26:14.497Z,19.60
2022-08-30T02:33:50.328Z,19.60
2022-08-30T02:36:19.355Z,19.60
2022-08-30T02:38:50.521Z,19.60
2022-08-30T02:41:19.456Z,19.60
2022-08-30T02:43:48.079Z,19.60
2022-08-30T02:46:16.957Z,19.60
2022-08-30T02:51:15.435Z,19.50
2022-08-30T02:53:45.382Z,19.40
2022-08-30T02:56:16.267Z,19.30
2022-08-30T02:58:45.709Z,19.30
2022-08-30T03:01:16.127Z,19.30
2022-08-30T03:03:46.015Z,19.40
2022-08-30T03:06:14.536Z,19.40
2022-08-30T03:11:15.049Z,19.30
2022-08-30T03:16:12.290Z,19.20
2022-08-30T03:18:43.186Z,19.20
2022-08-30T03:21:20.792Z,19.20
2022-08-30T03:23:49.584Z,19.20
2022-08-30T03:26:19.338Z,19.20
2022-08-30T03:28:47.834Z,19.10
2022-08-30T03:31:16.727Z,19.10
2022-08-30T03:33:45.035Z,19.20
2022-08-30T03:36:13.581Z,19.20
2022-08-30T03:38:42.946Z,19.10
2022-08-30T03:43:41.485Z,19.10
2022-08-30T03:48:39.314Z,19.00
2022-08-30T03:51:07.745Z,19.00
2022-08-30T03:53:36.060Z,19.00
2022-08-30T03:56:05.239Z,19.00
2022-08-30T03:58:34.519Z,18.90
2022-08-30T04:01:04.707Z,18.90
2022-08-30T04:03:34.884Z,18.80
2022-08-30T04:06:03.429Z,18.80
2022-08-30T04:08:31.726Z,18.80
2022-08-30T04:11:00.266Z,18.90
2022-08-30T04:13:29.009Z,18.90
2022-08-30T04:15:57.928Z,18.90
2022-08-30T04:18:27.898Z,18.90
2022-08-30T04:20:56.162Z,18.80
2022-08-30T04:23:24.671Z,18.80
2022-08-30T04:25:52.878Z,18.80
2022-08-30T04:28:21.278Z,18.80
2022-08-30T04:30:49.936Z,18.80
2022-08-30T04:33:19.908Z,18.70
2022-08-30T04:35:52.877Z,18.60
2022-08-30T04:38:24.685Z,18.70
2022-08-30T04:40:55.315Z,18.70
2022-08-30T04:45:54.878Z,18.80
2022-08-30T04:48:25.300Z,18.80
2022-08-30T04:50:55.059Z,18.80
2022-08-30T04:53:23.467Z,18.80
2022-08-30T04:55:51.715Z,18.70
2022-08-30T04:58:19.882Z,18.70
2022-08-30T05:00:48.222Z,18.70
2022-08-30T05:05:49.359Z,18.70
2022-08-30T05:08:24.643Z,18.60
2022-08-30T05:10:54.026Z,18.60
2022-08-30T05:13:26.263Z,18.60
2022-08-30T05:16:06.244Z,18.60
2022-08-30T05:18:35.608Z,18.50
2022-08-30T05:21:09.007Z,18.60
2022-08-30T05:23:39.274Z,18.60
2022-08-30T05:26:10.863Z,18.60
2022-08-30T05:28:40.946Z,18.60
2022-08-30T05:31:16.939Z,18.60
2022-08-30T05:33:46.053Z,18.60
2022-08-30T05:36:16.581Z,18.60
2022-08-30T05:38:46.594Z,18.60
2022-08-30T05:43:44.942Z,18.60
2022-08-30T05:46:19.397Z,18.60
2022-08-30T05:48:49.351Z,18.60
2022-08-30T05:51:19.895Z,18.60
2022-08-30T05:53:51.524Z,18.60
2022-08-30T05:56:21.876Z,18.60
2022-08-30T05:58:53.699Z,18.70
2022-08-30T06:01:24.330Z,18.70
2022-08-30T06:03:52.839Z,18.70
2022-08-30T06:06:20.952Z,18.80
2022-08-30T06:08:53.869Z,18.80
2022-08-30T06:11:24.717Z,18.90
2022-08-30T06:13:55.504Z,18.90
2022-08-30T06:16:26.101Z,18.90
2022-08-30T06:18:55.988Z,18.90
2022-08-30T06:21:26.723Z,19.00
2022-08-30T06:23:58.491Z,19.10
2022-08-30T06:29:06.644Z,19.10
2022-08-30T06:34:04.491Z,19.30
2022-08-30T06:39:09.022Z,19.50
2022-08-30T06:41:40.834Z,19.70
2022-08-30T06:44:09.750Z,20.00
2022-08-30T06:46:42.004Z,20.30
2022-08-30T06:49:10.644Z,20.70
2022-08-30T06:51:40.493Z,21.60
2022-08-30T06:54:12.725Z,22.60
2022-08-30T06:56:57.763Z,23.60
2022-08-30T06:59:27.789Z,24.40
2022-08-30T07:01:56.409Z,24.40
2022-08-30T07:04:26.088Z,25.10
2022-08-30T07:06:54.407Z,26.40
2022-08-30T07:09:24.761Z,26.40
2022-08-30T07:11:56.101Z,26.80
2022-08-30T07:14:25.216Z,26.80
2022-08-30T07:16:53.702Z,26.80
2022-08-30T07:19:22.490Z,26.80
2022-08-30T07:21:51.981Z,26.40
2022-08-30T07:24:21.460Z,26.20
2022-08-30T07:26:52.514Z,25.70
2022-08-30T07:29:21.784Z,25.40
2022-08-30T07:31:50.073Z,25.30
2022-08-30T07:34:19.759Z,25.20
2022-08-30T07:36:49.720Z,25.10
2022-08-30T07:39:19.410Z,25.10
2022-08-30T07:44:19.096Z,24.90
2022-08-30T07:46:48.702Z,25.20
2022-08-30T07:49:16.986Z,25.20
2022-08-30T07:51:45.181Z,25.30
2022-08-30T07:54:13.766Z,25.50
2022-08-30T07:56:42.334Z,25.60
2022-08-30T07:59:10.966Z,25.60
2022-08-30T08:01:41.003Z,25.60
2022-08-30T08:04:09.316Z,25.70
2022-08-30T08:06:41.031Z,25.80
2022-08-30T08:09:09.747Z,25.80
2022-08-30T08:11:38.409Z,25.80
2022-08-30T08:14:08.276Z,26.00
2022-08-30T08:16:42.453Z,26.00
2022-08-30T08:19:10.738Z,26.20
2022-08-30T08:26:59.129Z,26.10
2022-08-30T08:29:34.946Z,26.30
2022-08-30T08:32:05.672Z,26.20
2022-08-30T08:34:34.144Z,26.20
2022-08-30T08:37:02.394Z,26.40
2022-08-30T08:42:06.077Z,26.70
2022-08-30T08:47:26.133Z,26.90
2022-08-30T08:49:59.809Z,26.80
2022-08-30T08:52:49.678Z,26.70
2022-08-30T08:55:22.225Z,26.50
2022-08-30T08:57:52.596Z,26.60
2022-08-30T09:00:21.323Z,26.50
2022-08-30T09:02:58.307Z,26.60
2022-08-30T09:05:30.297Z,26.60
2022-08-30T09:08:06.591Z,26.70
2022-08-30T09:10:54.414Z,26.70
2022-08-30T09:13:23.375Z,28.00
2022-08-30T09:18:52.546Z,26.90
2022-08-30T09:21:25.558Z,27.00
2022-08-30T09:24:00.762Z,27.10
2022-08-30T09:26:31.948Z,27.10
2022-08-30T09:29:01.255Z,27.20
2022-08-30T09:31:31.624Z,27.10
2022-08-30T09:34:05.567Z,27.50
2022-08-30T09:36:36.263Z,27.50
2022-08-30T09:39:07.603Z,27.60
2022-08-30T09:41:42.592Z,27.60
2022-08-30T09:44:15.980Z,27.70
2022-08-30T09:46:50.959Z,27.80
2022-08-30T09:49:36.099Z,27.80
2022-08-30T09:52:19.147Z,27.90
2022-08-30T09:55:04.516Z,28.00
2022-08-30T09:57:41.222Z,28.10
2022-08-30T10:00:15.156Z,28.30
2022-08-30T10:03:00.230Z,28.40
2022-08-30T10:05:37.538Z,28.40
2022-08-30T10:08:20.958Z,28.60
2022-08-30T10:10:59.031Z,28.50
2022-08-30T10:14:01.778Z,28.60
2022-08-30T10:16:47.719Z,28.70
2022-08-30T10:19:29.702Z,28.80
2022-08-30T10:22:05.955Z,28.70
2022-08-30T10:24:39.160Z,28.70
2022-08-30T10:27:20.928Z,28.80
2022-08-30T10:29:59.676Z,28.80
2022-08-30T10:32:33.672Z,29.00
2022-08-30T10:35:08.390Z,29.10
2022-08-30T10:37:41.254Z,29.20
2022-08-30T10:40:34.319Z,29.20
2022-08-30T10:43:15.180Z,29.40
2022-08-30T10:45:47.909Z,29.40
2022-08-30T10:48:22.381Z,29.50
2022-08-30T10:50:53.693Z,29.50
2022-08-30T10:53:30.672Z,29.40
2022-08-30T10:56:03.419Z,29.50
2022-08-30T10:58:33.158Z,29.50
2022-08-30T11:01:20.024Z,29.50
2022-08-30T11:04:45.331Z,29.60
2022-08-30T11:07:25.657Z,29.70
2022-08-30T11:10:20.352Z,29.80
2022-08-30T11:13:17.410Z,29.70
2022-08-30T11:16:06.599Z,29.80
2022-08-30T11:18:56.819Z,29.80
2022-08-30T11:21:32.931Z,29.90
2022-08-30T11:24:11.806Z,30.00
2022-08-30T11:27:02.030Z,30.00
2022-08-30T11:29:36.657Z,30.10
2022-08-30T11:32:51.130Z,30.10
2022-08-30T11:35:48.150Z,30.10
2022-08-30T11:38:41.609Z,30.10
2022-08-30T11:41:12.078Z,30.00
2022-08-30T11:43:57.293Z,29.90
2022-08-30T11:46:41.749Z,29.80
2022-08-30T11:49:32.919Z,29.80
2022-08-30T11:52:26.882Z,29.70
2022-08-30T11:55:19.598Z,29.70
2022-08-30T11:57:53.863Z,29.60
2022-08-30T12:00:35.476Z,29.50
2022-08-30T12:03:07.223Z,29.40
2022-08-30T12:05:59.006Z,29.20
2022-08-30T12:08:57.888Z,29.00
2022-08-30T12:12:02.625Z,28.90
2022-08-30T12:14:52.077Z,28.80
2022-08-30T12:17:43.512Z,28.70
2022-08-30T12:21:07.778Z,28.60
2022-08-30T12:23:44.628Z,28.40
2022-08-30T12:27:03.581Z,28.40
2022-08-30T12:29:54.192Z,28.30
2022-08-30T12:32:23.385Z,28.20
2022-08-30T12:34:54.424Z,28.20
2022-08-30T12:37:25.926Z,28.20
2022-08-30T12:40:06.919Z,28.30
2022-08-30T12:45:28.427Z,28.00
2022-08-30T12:48:05.438Z,28.10
2022-08-30T12:58:40.591Z,28.20
2022-08-30T13:01:25.719Z,28.20
2022-08-30T13:04:01.028Z,28.20
2022-08-30T13:06:45.623Z,28.20
2022-08-30T13:09:27.018Z,28.20
2022-08-30T13:11:56.523Z,28.10
2022-08-30T13:14:35.156Z,28.00
2022-08-30T13:17:21.304Z,28.00
2022-08-30T13:20:08.189Z,27.90
2022-08-30T13:22:38.501Z,28.00
2022-08-30T13:25:08.821Z,28.10
2022-08-30T13:27:38.450Z,28.20
2022-08-30T13:30:13.471Z,28.20
2022-08-30T13:32:42.833Z,28.20
2022-08-30T13:35:12.282Z,27.20
2022-08-30T13:37:50.090Z,28.00
2022-08-30T13:40:20.136Z,27.90
2022-08-30T13:42:48.776Z,27.80
2022-08-30T13:48:11.530Z,27.70
2022-08-30T13:50:40.258Z,27.60
2022-08-30T13:53:10.247Z,27.60
2022-08-30T13:55:46.793Z,27.60
2022-08-30T13:58:17.154Z,27.60
2022-08-30T14:00:47.198Z,27.60
2022-08-30T14:03:25.950Z,27.50
2022-08-30T14:06:15.808Z,27.50
2022-08-30T14:08:46.327Z,27.50
2022-08-30T14:11:21.233Z,27.50
2022-08-30T14:16:51.121Z,27.40
2022-08-30T14:19:20.291Z,27.30
2022-08-30T14:21:49.443Z,27.30
2022-08-30T14:24:20.064Z,27.20
2022-08-30T14:26:52.265Z,27.30
2022-08-30T14:29:22.804Z,27.30
2022-08-30T14:31:54.395Z,27.30
2022-08-30T14:34:23.214Z,27.20
2022-08-30T14:36:51.534Z,27.20
2022-08-30T14:39:23.935Z,27.30
2022-08-30T14:41:55.315Z,27.30
2022-08-30T14:44:25.397Z,27.30
2022-08-30T14:46:56.656Z,27.40
2022-08-30T14:49:26.013Z,27.50
2022-08-30T14:51:55.719Z,27.50
2022-08-30T14:54:27.322Z,27.50
2022-08-30T14:56:56.306Z,27.60
2022-08-30T14:59:26.936Z,27.60
2022-08-30T15:01:57.299Z,27.60
2022-08-30T15:04:26.757Z,27.80
2022-08-30T15:06:55.426Z,27.90
2022-08-30T15:09:25.218Z,27.90
2022-08-30T15:11:55.122Z,28.00
2022-08-30T15:14:24.076Z,27.80
2022-08-30T15:16:58.306Z,27.80
2022-08-30T15:19:27.987Z,27.70
2022-08-30T15:22:01.035Z,27.70
2022-08-30T15:24:30.190Z,27.50
2022-08-30T15:26:59.738Z,27.40
2022-08-30T15:29:28.347Z,27.40
2022-08-30T15:32:02.422Z,27.50
2022-08-30T15:34:31.368Z,27.50
2022-08-30T15:37:00.162Z,27.40
2022-08-30T15:39:29.181Z,27.40
2022-08-30T15:42:00.952Z,27.40
2022-08-30T15:44:30.054Z,27.60
2022-08-30T15:47:00.427Z,27.60
2022-08-30T15:49:30.778Z,27.50
2022-08-30T15:52:03.466Z,27.50
2022-08-30T15:54:32.308Z,27.50
2022-08-30T15:59:31.605Z,27.40
2022-08-30T16:02:01.087Z,27.30
2022-08-30T16:04:31.486Z,27.30
2022-08-30T16:07:00.000Z,27.30
2022-08-30T16:09:32.406Z,27.20
2022-08-30T16:12:01.734Z,27.20
2022-08-30T16:14:29.989Z,27.30
2022-08-30T16:16:59.323Z,27.30
2022-08-30T16:19:28.285Z,27.30
2022-08-30T16:22:04.875Z,27.20
2022-08-30T16:24:35.739Z,27.20
2022-08-30T16:27:14.148Z,27.20
2022-08-30T16:29:47.900Z,27.10
2022-08-30T16:34:49.791Z,27.20
2022-08-30T16:37:20.397Z,27.20
2022-08-30T16:39:49.024Z,27.10
2022-08-30T16:42:20.717Z,27.10
2022-08-30T16:44:49.981Z,27.10
2022-08-30T16:47:18.743Z,27.00
2022-08-30T16:49:47.280Z,27.00
2022-08-30T16:52:18.165Z,27.00
2022-08-30T16:54:52.076Z,27.00
2022-08-30T16:57:24.602Z,27.00
2022-08-30T16:59:53.567Z,27.00
2022-08-30T17:02:22.419Z,25.40
2022-08-30T17:07:40.601Z,27.00
2022-08-30T17:10:11.228Z,26.90
2022-08-30T17:12:43.465Z,26.90
2022-08-30T17:15:15.579Z,26.90
2022-08-30T17:17:43.996Z,26.90
2022-08-30T17:23:19.248Z,26.80
2022-08-30T17:25:50.135Z,26.70
2022-08-30T17:28:18.906Z,26.80
2022-08-30T17:30:51.028Z,26.70
2022-08-30T17:33:20.773Z,26.70
2022-08-30T17:35:49.460Z,26.70
2022-08-30T17:38:19.178Z,26.70
2022-08-30T17:40:54.941Z,26.70
2022-08-30T17:48:23.365Z,26.60
2022-08-30T17:56:04.911Z,26.50
2022-08-30T17:58:37.563Z,26.50
2022-08-30T18:01:11.728Z,26.50
2022-08-30T18:04:01.905Z,26.40
2022-08-30T18:09:04.644Z,26.40
2022-08-30T18:11:37.863Z,26.30
2022-08-30T18:14:07.701Z,26.30
2022-08-30T18:16:49.603Z,26.30
2022-08-30T18:19:22.466Z,26.30
2022-08-30T18:21:51.139Z,26.30
2022-08-30T18:24:20.156Z,26.30
2022-08-30T18:26:52.718Z,26.20
2022-08-30T18:29:26.324Z,26.20
2022-08-30T18:32:06.449Z,26.20
2022-08-30T18:34:52.859Z,26.20
2022-08-30T18:37:28.018Z,26.20
2022-08-30T18:40:09.719Z,26.20
2022-08-30T18:45:15.387Z,26.10
2022-08-30T18:47:44.905Z,26.00
2022-08-30T18:52:42.193Z,26.00
2022-08-30T18:57:45.137Z,25.90
2022-08-30T19:00:17.002Z,25.90
2022-08-30T19:02:45.764Z,25.80
2022-08-30T19:05:16.362Z,25.80
2022-08-30T19:07:45.838Z,25.80
2022-08-30T19:10:16.005Z,25.70
2022-08-30T19:12:51.250Z,25.70
2022-08-30T19:17:49.389Z,25.70
2022-08-30T19:20:56.073Z,25.70
2022-08-30T19:26:03.590Z,25.60
2022-08-30T19:34:03.437Z,25.50
2022-08-30T19:36:33.185Z,25.50
2022-08-30T19:39:01.634Z,25.50
2022-08-30T19:44:02.922Z,25.40
2022-08-30T19:49:20.752Z,25.30
2022-08-30T19:59:34.640Z,25.10
2022-08-30T20:09:37.970Z,25.10
2022-08-30T20:22:08.473Z,24.90
2022-08-30T20:24:23.330Z,27.00
2022-08-30T20:27:28.159Z,24.80
2022-08-30T20:30:26.081Z,24.80
2022-08-30T20:38:22.513Z,24.80
2022-08-30T20:40:58.766Z,24.70
2022-08-30T20:43:31.681Z,24.70
2022-08-30T21:08:32.990Z,24.50
2022-08-30T21:11:09.153Z,24.70
2022-08-30T21:16:27.003Z,24.40
2022-08-30T21:28:55.652Z,24.30
2022-08-30T21:31:49.770Z,24.30
2022-08-30T21:42:53.849Z,24.10
2022-08-30T22:02:21.246Z,21.60
2022-08-30T22:07:40.012Z,24.10
2022-08-30T22:10:11.233Z,24.00
2022-08-30T22:15:33.552Z,24.00
2022-08-30T22:18:15.066Z,24.00
2022-08-30T22:23:18.858Z,23.80
2022-08-30T22:33:17.797Z,23.80
2022-08-30T22:35:47.467Z,23.80
2022-08-30T22:38:17.234Z,24.90
2022-08-30T22:40:49.064Z,23.80
2022-08-30T22:43:18.433Z,23.80
2022-08-30T22:50:47.232Z,23.80
2022-08-30T22:55:48.116Z,23.80
2022-08-30T23:23:28.393Z,21.40
2022-08-30T23:27:10.048Z,23.50
2022-08-30T23:35:43.867Z,23.30
2022-08-30T23:45:21.685Z,23.30
2022-08-30T23:51:00.883Z,23.30
